BGSO2: Deep Fork River, Beggs, Okla

Data processed at Fri Mar 09 2018 23:19


All information presented herein is the property of the government of the United States of America and may be revised or deleted at any time without prior notice.
Dissemination of this information without the expressed written consent of the Public Affairs Office, Tulsa District U.S. Army Corps of Engineers is strictly prohibited.
These data are gathered electronically and, as presented, have not undergone any form of quality control. These data are not guaranteed to be valid or correct.
Go to home page.
Go to station list.

Upstream stations:

Downstream station:
Previous Day
Next Day
Current Day
    
SHEF ID:       BGSO2     Deep Fork near Beggs, OK
STATION TYPE:  

               PRECIP     STAGE  STAGE(2)  RIV-FLOW  BAT-LOAD
                   in        ft        ft       cfs      volt
              Ccp-Rev   Ccp-Rev   Ccp-Rev   Ccp-Rev   Ccp-Rev
(US/Central)
03/07 00:00      0.00      2.73      2.76       421     12.57
03/07 01:00      0.00      2.71      2.74       416     12.49
03/07 02:00      0.00      2.71      2.72       416     12.49
03/07 03:00      0.00      2.69      2.70       411     12.49
03/07 04:00      0.00      2.67      2.68       407     12.41
03/07 05:00      0.00      2.65      2.66       402     12.41
03/07 06:00      0.00      2.64      2.65       399     12.41
03/07 07:00      0.00      2.63      2.63       397     12.41
03/07 08:00      0.00      2.61      2.61       392     12.41
03/07 09:00      0.00      2.59      2.60       387     12.89
03/07 10:00      0.00      2.59      2.59       387     13.37
03/07 11:00      0.00      2.56      2.58       380     13.37
03/07 12:00      0.00      2.54      2.56       375     13.37
03/07 13:00      0.00      2.54      2.55       375     13.44
03/07 14:00      0.00      2.52      2.53       371     13.44
03/07 15:00      0.00      2.51      2.50       369     13.37
03/07 16:00      0.00      2.49      2.49       364     13.37
03/07 17:00      0.00      2.48      2.48       362     13.37
03/07 18:00      0.00      2.46      2.47       357     13.05
03/07 19:00      0.00      2.45      2.46       355     12.73
03/07 20:00      0.00      2.45      2.45       355     12.65
03/07 21:00      0.00      2.43      2.44       350     12.65
03/07 22:00      0.00      2.42      2.43       348     12.57
03/07 23:00      0.00      2.40      2.42       344     12.57